createdAt,value
2018-11-10T00:00:32.008Z,75.10
2018-11-10T00:03:00.871Z,75.10
2018-11-10T00:05:29.750Z,75.30
2018-11-10T00:07:58.259Z,75.20
2018-11-10T00:10:26.863Z,75.20
2018-11-10T00:12:55.538Z,75.20
2018-11-10T00:15:24.037Z,75.10
2018-11-10T00:17:52.594Z,75.20
2018-11-10T00:20:21.564Z,75.20
2018-11-10T00:22:50.172Z,75.30
2018-11-10T00:25:18.653Z,75.30
2018-11-10T00:27:47.388Z,75.30
2018-11-10T00:30:21.206Z,75.30
2018-11-10T00:32:56.298Z,75.40
2018-11-10T00:35:25.084Z,75.40
2018-11-10T00:37:53.749Z,75.40
2018-11-10T00:40:22.258Z,75.40
2018-11-10T00:42:50.724Z,75.40
2018-11-10T00:45:19.431Z,75.50
2018-11-10T00:47:47.946Z,75.30
2018-11-10T00:50:16.456Z,75.40
2018-11-10T00:52:45.320Z,75.40
2018-11-10T00:55:15.454Z,75.40
2018-11-10T00:57:44.271Z,75.60
2018-11-10T01:00:13.469Z,75.60
2018-11-10T01:02:43.299Z,75.50
2018-11-10T01:05:11.776Z,75.60
2018-11-10T01:07:41.368Z,76.40
2018-11-10T01:10:13.093Z,75.80
2018-11-10T01:12:41.990Z,75.80
2018-11-10T01:15:14.982Z,75.80
2018-11-10T01:17:44.136Z,75.70
2018-11-10T01:20:13.288Z,75.80
2018-11-10T01:22:41.804Z,75.80
2018-11-10T01:25:12.755Z,75.80
2018-11-10T01:27:45.050Z,75.80
2018-11-10T01:30:15.668Z,75.70
2018-11-10T01:32:44.782Z,75.70
2018-11-10T01:35:13.653Z,75.90
2018-11-10T01:37:42.464Z,75.90
2018-11-10T01:40:13.884Z,75.90
2018-11-10T01:42:43.404Z,75.90
2018-11-10T01:45:14.760Z,76.10
2018-11-10T01:47:43.886Z,76.10
2018-11-10T01:50:12.360Z,76.10
2018-11-10T01:52:42.155Z,76.10
2018-11-10T01:55:12.284Z,76.20
2018-11-10T01:57:41.462Z,76.10
2018-11-10T02:00:14.201Z,76.10
2018-11-10T02:02:43.201Z,76.10
2018-11-10T02:05:14.236Z,76.20
2018-11-10T02:07:42.868Z,76.10
2018-11-10T02:10:11.810Z,76.20
2018-11-10T02:12:41.475Z,76.30
2018-11-10T02:15:13.325Z,76.30
2018-11-10T02:17:41.776Z,76.30
2018-11-10T02:20:11.860Z,76.40
2018-11-10T02:22:41.134Z,76.40
2018-11-10T02:25:11.284Z,76.50
2018-11-10T02:27:40.463Z,76.50
2018-11-10T02:30:10.777Z,76.50
2018-11-10T02:32:39.260Z,76.60
2018-11-10T02:35:08.524Z,76.60
2018-11-10T02:37:38.573Z,76.60
2018-11-10T02:40:10.436Z,76.60
2018-11-10T02:42:39.776Z,76.50
2018-11-10T02:45:09.828Z,76.60
2018-11-10T02:47:39.558Z,76.60
2018-11-10T02:50:09.331Z,76.70
2018-11-10T02:52:38.329Z,76.70
2018-11-10T02:55:07.492Z,76.70
2018-11-10T02:57:37.126Z,76.70
2018-11-10T03:00:08.010Z,76.70
2018-11-10T03:02:36.758Z,76.70
2018-11-10T03:05:07.399Z,76.80
2018-11-10T03:07:36.695Z,76.80
2018-11-10T03:10:05.724Z,76.70
2018-11-10T03:12:34.779Z,76.70
2018-11-10T03:15:03.319Z,76.70
2018-11-10T03:17:31.838Z,76.70
2018-11-10T03:20:00.281Z,76.80
2018-11-10T03:22:28.983Z,76.70
2018-11-10T03:24:57.683Z,76.70
2018-11-10T03:27:27.404Z,76.80
2018-11-10T03:29:56.034Z,76.80
2018-11-10T03:32:26.772Z,76.90
2018-11-10T03:34:55.927Z,77.00
2018-11-10T03:37:24.950Z,77.10
2018-11-10T03:39:53.602Z,77.10
2018-11-10T03:42:22.897Z,77.00
2018-11-10T03:44:52.208Z,77.00
2018-11-10T03:47:20.764Z,77.10
2018-11-10T03:49:49.874Z,77.10
2018-11-10T03:52:18.370Z,77.10
2018-11-10T03:54:46.816Z,77.20
2018-11-10T03:57:15.336Z,77.20
2018-11-10T03:59:44.527Z,77.30
2018-11-10T04:02:13.285Z,77.40
2018-11-10T04:04:41.917Z,77.40
2018-11-10T04:07:11.018Z,77.40
2018-11-10T04:09:39.615Z,77.40
2018-11-10T04:12:08.191Z,77.50
2018-11-10T04:14:37.751Z,77.50
2018-11-10T04:17:06.486Z,77.50
2018-11-10T04:19:35.501Z,77.50
2018-11-10T04:22:04.326Z,77.50
2018-11-10T04:24:33.230Z,77.60
2018-11-10T04:27:01.789Z,77.70
2018-11-10T04:29:30.283Z,77.70
2018-11-10T04:31:58.759Z,77.70
2018-11-10T04:34:27.234Z,77.70
2018-11-10T04:36:55.677Z,77.60
2018-11-10T04:39:24.188Z,77.50
2018-11-10T04:41:52.883Z,77.60
2018-11-10T04:44:21.918Z,77.60
2018-11-10T04:47:01.082Z,77.60
2018-11-10T04:49:29.723Z,77.60
2018-11-10T04:51:58.315Z,77.60
2018-11-10T04:54:26.801Z,77.70
2018-11-10T04:56:55.465Z,77.70
2018-11-10T04:59:23.984Z,77.70
2018-11-10T05:01:52.557Z,77.60
2018-11-10T05:04:21.226Z,77.60
2018-11-10T05:06:49.945Z,77.60
2018-11-10T05:09:19.313Z,77.60
2018-11-10T05:11:47.807Z,77.60
2018-11-10T05:14:16.465Z,77.60
2018-11-10T05:16:45.079Z,77.50
2018-11-10T05:19:13.617Z,77.50
2018-11-10T05:21:42.294Z,77.50
2018-11-10T05:24:10.762Z,77.50
2018-11-10T05:26:39.256Z,77.50
2018-11-10T05:29:08.555Z,77.60
2018-11-10T05:31:38.160Z,77.60
2018-11-10T05:34:06.877Z,77.60
2018-11-10T05:36:35.315Z,78.30
2018-11-10T05:39:04.997Z,77.50
2018-11-10T05:41:34.807Z,77.40
2018-11-10T05:44:03.300Z,77.40
2018-11-10T05:46:31.735Z,77.40
2018-11-10T05:49:00.463Z,77.40
2018-11-10T05:51:28.936Z,77.30
2018-11-10T05:53:59.420Z,77.30
2018-11-10T05:56:29.521Z,77.30
2018-11-10T05:58:58.379Z,77.30
2018-11-10T06:01:26.816Z,77.40
2018-11-10T06:03:55.249Z,77.40
2018-11-10T06:06:23.753Z,77.40
2018-11-10T06:08:52.264Z,77.40
2018-11-10T06:11:21.656Z,77.40
2018-11-10T06:13:50.257Z,77.40
2018-11-10T06:16:18.675Z,77.50
2018-11-10T06:18:47.198Z,77.60
2018-11-10T06:21:17.176Z,77.50
2018-11-10T06:23:45.653Z,77.70
2018-11-10T06:26:14.345Z,77.60
2018-11-10T06:28:42.839Z,77.60
2018-11-10T06:31:11.337Z,77.50
2018-11-10T06:33:40.289Z,77.40
2018-11-10T06:36:09.529Z,77.40
2018-11-10T06:38:37.991Z,77.50
2018-11-10T06:41:07.002Z,77.50
2018-11-10T06:43:35.780Z,77.40
2018-11-10T06:46:04.469Z,77.40
2018-11-10T06:48:34.236Z,77.40
2018-11-10T06:51:04.539Z,77.60
2018-11-10T06:53:34.313Z,77.50
2018-11-10T06:56:03.369Z,77.40
2018-11-10T06:58:31.915Z,77.40
2018-11-10T07:01:00.497Z,77.30
2018-11-10T07:03:30.120Z,77.20
2018-11-10T07:05:58.551Z,77.10
2018-11-10T07:08:27.071Z,77.10
2018-11-10T07:10:55.789Z,77.10
2018-11-10T07:13:26.111Z,77.00
2018-11-10T07:15:54.586Z,76.90
2018-11-10T07:18:25.256Z,77.60
2018-11-10T07:20:54.349Z,76.80
2018-11-10T07:23:23.846Z,76.50
2018-11-10T07:25:53.247Z,76.50
2018-11-10T07:28:22.423Z,76.50
2018-11-10T07:30:50.877Z,76.40
2018-11-10T07:33:20.644Z,76.30
2018-11-10T07:35:49.191Z,76.10
2018-11-10T07:38:17.675Z,76.00
2018-11-10T07:40:46.150Z,76.00
2018-11-10T07:43:15.110Z,75.80
2018-11-10T07:45:43.721Z,75.70
2018-11-10T07:51:05.319Z,75.30
2018-11-10T07:53:33.873Z,75.30
2018-11-10T07:56:02.341Z,75.20
2018-11-10T07:58:31.173Z,75.20
2018-11-10T08:01:00.218Z,75.00
2018-11-10T08:03:29.141Z,75.00
2018-11-10T08:05:57.874Z,74.70
2018-11-10T08:08:26.565Z,74.60
2018-11-10T08:10:56.462Z,74.60
2018-11-10T08:13:25.406Z,74.20
2018-11-10T08:15:53.909Z,74.20
2018-11-10T08:18:22.655Z,74.00
2018-11-10T08:20:51.275Z,73.90
2018-11-10T08:23:25.705Z,73.60
2018-11-10T08:25:54.349Z,73.50
2018-11-10T08:28:23.395Z,73.30
2018-11-10T08:30:52.096Z,73.20
2018-11-10T08:33:21.197Z,72.80
2018-11-10T08:35:50.163Z,72.60
2018-11-10T08:38:19.395Z,72.50
2018-11-10T08:40:49.823Z,72.30
2018-11-10T08:43:18.829Z,72.10
2018-11-10T08:45:49.659Z,72.80
2018-11-10T08:48:20.051Z,71.80
2018-11-10T08:50:49.200Z,71.90
2018-11-10T08:53:18.893Z,71.80
2018-11-10T08:55:52.567Z,71.50
2018-11-10T08:58:21.153Z,71.10
2018-11-10T09:00:50.015Z,71.10
2018-11-10T09:03:19.201Z,70.70
2018-11-10T09:05:48.000Z,70.60
2018-11-10T09:08:16.773Z,70.50
2018-11-10T09:10:50.211Z,70.30
2018-11-10T09:13:18.798Z,70.00
2018-11-10T09:15:47.296Z,70.00
2018-11-10T09:18:15.913Z,69.80
2018-11-10T09:20:45.841Z,69.60
2018-11-10T09:23:14.485Z,69.60
2018-11-10T09:25:43.093Z,69.40
2018-11-10T09:28:11.527Z,69.20
2018-11-10T09:30:40.088Z,69.20
2018-11-10T09:33:08.841Z,69.20
2018-11-10T09:35:37.849Z,69.00
2018-11-10T09:38:06.997Z,68.70
2018-11-10T09:40:35.621Z,68.50
2018-11-10T09:43:05.041Z,68.40
2018-11-10T09:45:33.841Z,68.30
2018-11-10T09:48:03.125Z,68.20
2018-11-10T09:50:31.624Z,68.20
2018-11-10T09:53:00.119Z,68.00
2018-11-10T09:55:29.249Z,68.00
2018-11-10T09:57:57.858Z,67.80
2018-11-10T10:00:27.069Z,67.60
2018-11-10T10:02:55.745Z,67.50
2018-11-10T10:05:24.691Z,67.40
2018-11-10T10:08:00.185Z,67.30
2018-11-10T10:10:32.553Z,67.20
2018-11-10T10:13:01.322Z,67.10
2018-11-10T10:15:30.345Z,67.10
2018-11-10T10:17:59.535Z,66.90
2018-11-10T10:20:28.015Z,66.80
2018-11-10T10:22:57.161Z,66.60
2018-11-10T10:25:26.174Z,66.60
2018-11-10T10:27:54.848Z,66.50
2018-11-10T10:30:24.640Z,66.30
2018-11-10T10:32:56.456Z,66.20
2018-11-10T10:35:25.139Z,66.10
2018-11-10T10:37:53.535Z,65.90
2018-11-10T10:40:22.833Z,65.70
2018-11-10T10:42:51.459Z,66.50
2018-11-10T10:45:21.918Z,65.50
2018-11-10T10:47:50.454Z,65.70
2018-11-10T10:50:22.011Z,65.50
2018-11-10T10:52:50.547Z,65.40
2018-11-10T10:55:20.418Z,65.10
2018-11-10T10:57:50.825Z,65.00
2018-11-10T11:00:24.670Z,65.00
2018-11-10T11:05:04.668Z,64.80
2018-11-10T11:07:33.351Z,64.60
2018-11-10T11:10:02.345Z,64.90
2018-11-10T11:12:32.306Z,64.60
2018-11-10T11:15:00.926Z,64.60
2018-11-10T11:17:29.438Z,64.70
2018-11-10T11:19:58.187Z,64.40
2018-11-10T11:22:26.728Z,64.30
2018-11-10T11:24:56.094Z,64.20
2018-11-10T11:27:24.588Z,64.10
2018-11-10T11:29:53.588Z,64.20
2018-11-10T11:32:22.893Z,64.20
2018-11-10T11:34:51.910Z,64.60
2018-11-10T11:37:21.039Z,64.30
2018-11-10T11:39:50.009Z,63.40
2018-11-10T11:42:19.817Z,62.10
2018-11-10T11:44:51.647Z,61.00
2018-11-10T11:47:21.308Z,60.00
2018-11-10T11:49:49.921Z,59.10
2018-11-10T11:52:18.674Z,58.60
2018-11-10T11:54:47.329Z,58.10
2018-11-10T11:57:17.932Z,56.80
2018-11-10T11:59:46.791Z,56.50
2018-11-10T12:02:15.542Z,56.10
2018-11-10T12:04:45.296Z,55.40
2018-11-10T12:07:13.981Z,54.90
2018-11-10T12:09:43.404Z,54.70
2018-11-10T12:12:12.265Z,54.10
2018-11-10T12:14:40.890Z,53.20
2018-11-10T12:17:09.349Z,52.80
2018-11-10T12:19:42.799Z,52.20
2018-11-10T12:22:11.374Z,51.80
2018-11-10T12:24:40.061Z,51.30
2018-11-10T12:27:09.214Z,50.80
2018-11-10T12:29:38.463Z,51.20
2018-11-10T12:32:07.507Z,51.00
2018-11-10T12:34:36.150Z,50.60
2018-11-10T12:37:05.724Z,50.00
2018-11-10T12:39:38.773Z,49.90
2018-11-10T12:42:07.341Z,49.70
2018-11-10T12:44:35.832Z,50.10
2018-11-10T12:47:04.792Z,50.20
2018-11-10T12:49:34.521Z,50.00
2018-11-10T12:52:03.597Z,49.50
2018-11-10T12:54:32.311Z,49.50
2018-11-10T12:57:01.124Z,49.40
2018-11-10T12:59:29.588Z,49.20
2018-11-10T13:01:58.068Z,49.20
2018-11-10T13:04:31.361Z,49.10
2018-11-10T13:07:00.971Z,49.10
2018-11-10T13:09:29.433Z,49.10
2018-11-10T13:11:57.960Z,49.10
2018-11-10T13:14:26.422Z,49.20
2018-11-10T13:16:54.967Z,49.10
2018-11-10T13:22:00.476Z,49.40
2018-11-10T13:24:29.192Z,49.80
2018-11-10T13:26:58.425Z,50.40
2018-11-10T13:29:28.966Z,51.00
2018-11-10T13:31:57.593Z,51.50
2018-11-10T13:34:26.088Z,52.00
2018-11-10T13:36:55.635Z,52.60
2018-11-10T13:39:24.170Z,53.00
2018-11-10T13:41:52.634Z,53.40
2018-11-10T13:44:21.246Z,53.80
2018-11-10T13:46:49.808Z,54.10
2018-11-10T13:49:20.325Z,54.50
2018-11-10T13:51:49.167Z,54.80
2018-11-10T13:54:18.314Z,55.10
2018-11-10T13:56:47.421Z,55.50
2018-11-10T13:59:16.808Z,55.60
2018-11-10T14:01:46.416Z,55.80
2018-11-10T14:04:15.148Z,56.20
2018-11-10T14:06:44.704Z,56.30
2018-11-10T14:09:13.354Z,56.40
2018-11-10T14:11:42.364Z,56.70
2018-11-10T14:14:11.724Z,56.90
2018-11-10T14:16:41.736Z,57.10
2018-11-10T14:19:10.562Z,57.30
2018-11-10T14:21:39.058Z,57.40
2018-11-10T14:24:07.608Z,57.50
2018-11-10T14:26:37.228Z,57.70
2018-11-10T14:29:07.061Z,57.80
2018-11-10T14:31:36.101Z,57.90
2018-11-10T14:34:04.708Z,58.00
2018-11-10T14:36:33.236Z,58.10
2018-11-10T14:39:01.923Z,58.20
2018-11-10T14:41:30.878Z,58.50
2018-11-10T14:44:00.105Z,58.50
2018-11-10T14:46:29.094Z,58.70
2018-11-10T14:48:57.559Z,59.40
2018-11-10T14:51:26.070Z,58.90
2018-11-10T14:53:54.561Z,59.10
2018-11-10T14:56:23.104Z,59.30
2018-11-10T14:58:51.682Z,59.40
2018-11-10T15:01:20.268Z,59.50
2018-11-10T15:03:48.791Z,59.70
2018-11-10T15:06:17.332Z,59.80
2018-11-10T15:08:45.789Z,59.90
2018-11-10T15:11:14.344Z,60.10
2018-11-10T15:13:43.810Z,60.20
2018-11-10T15:16:12.434Z,60.40
2018-11-10T15:18:41.751Z,60.50
2018-11-10T15:23:50.903Z,60.80
2018-11-10T15:26:20.000Z,61.10
2018-11-10T15:29:01.111Z,61.20
2018-11-10T15:31:37.456Z,61.40
2018-11-10T15:36:53.486Z,61.90
2018-11-10T15:39:24.896Z,61.90
2018-11-10T15:42:00.686Z,62.00
2018-11-10T15:44:34.508Z,62.20
2018-11-10T15:47:13.236Z,62.80
2018-11-10T15:49:52.642Z,62.40
2018-11-10T15:52:32.189Z,62.70
2018-11-10T15:57:51.221Z,62.80
2018-11-10T16:00:32.444Z,62.90
2018-11-10T16:03:02.489Z,63.30
2018-11-10T16:05:41.536Z,63.30
2018-11-10T16:08:15.068Z,63.30
2018-11-10T16:10:44.404Z,63.50
2018-11-10T16:13:22.929Z,63.60
2018-11-10T16:15:54.510Z,63.60
2018-11-10T16:21:09.690Z,64.00
2018-11-10T16:23:39.192Z,64.00
2018-11-10T16:26:08.665Z,64.20
2018-11-10T16:28:39.424Z,64.40
2018-11-10T16:31:09.574Z,64.60
2018-11-10T16:33:44.584Z,64.50
2018-11-10T16:36:22.588Z,64.60
2018-11-10T16:38:53.956Z,64.70
2018-11-10T16:41:27.530Z,64.80
2018-11-10T16:43:56.682Z,64.80
2018-11-10T16:46:25.723Z,65.00
2018-11-10T16:48:55.588Z,65.20
2018-11-10T16:51:24.096Z,65.30
2018-11-10T16:53:52.930Z,65.30
2018-11-10T16:56:21.851Z,65.50
2018-11-10T16:58:50.890Z,65.60
2018-11-10T17:01:20.035Z,65.60
2018-11-10T17:03:48.591Z,65.70
2018-11-10T17:06:17.110Z,65.90
2018-11-10T17:08:46.344Z,66.00
2018-11-10T17:11:17.016Z,66.20
2018-11-10T17:13:46.408Z,66.20
2018-11-10T17:16:14.943Z,66.30
2018-11-10T17:18:49.432Z,66.40
2018-11-10T17:21:17.986Z,66.40
2018-11-10T17:23:47.286Z,66.50
2018-11-10T17:26:15.792Z,66.40
2018-11-10T17:28:44.925Z,66.60
2018-11-10T17:31:14.906Z,66.70
2018-11-10T17:33:43.781Z,66.80
2018-11-10T17:36:13.085Z,66.90
2018-11-10T17:38:42.379Z,67.10
2018-11-10T17:41:10.971Z,67.10
2018-11-10T17:43:39.483Z,67.20
2018-11-10T17:46:08.192Z,67.30
2018-11-10T17:48:39.756Z,67.40
2018-11-10T17:51:09.537Z,67.50
2018-11-10T17:53:40.413Z,67.50
2018-11-10T17:56:12.720Z,67.60
2018-11-10T17:58:41.433Z,67.70
2018-11-10T18:01:11.325Z,67.80
2018-11-10T18:03:40.862Z,67.90
2018-11-10T18:06:12.752Z,68.00
2018-11-10T18:08:42.191Z,67.90
2018-11-10T18:11:11.584Z,68.00
2018-11-10T18:13:40.329Z,68.10
2018-11-10T18:16:08.882Z,68.20
2018-11-10T18:18:43.445Z,68.20
2018-11-10T18:21:13.582Z,68.30
2018-11-10T18:23:45.675Z,68.40
2018-11-10T18:26:14.314Z,68.40
2018-11-10T18:28:43.140Z,68.50
2018-11-10T18:31:11.626Z,68.60
2018-11-10T18:33:41.113Z,68.60
2018-11-10T18:36:09.870Z,68.60
2018-11-10T18:38:38.798Z,68.60
2018-11-10T18:41:08.198Z,68.70
2018-11-10T18:43:37.706Z,68.70
2018-11-10T18:46:12.470Z,68.80
2018-11-10T18:48:41.512Z,68.70
2018-11-10T18:51:10.719Z,68.70
2018-11-10T18:53:40.507Z,68.70
2018-11-10T18:56:13.714Z,68.70
2018-11-10T18:58:46.539Z,68.70
2018-11-10T19:01:15.441Z,68.80
2018-11-10T19:03:45.511Z,68.80
2018-11-10T19:06:14.210Z,68.80
2018-11-10T19:08:43.659Z,69.00
2018-11-10T19:11:12.350Z,69.00
2018-11-10T19:13:45.130Z,69.10
2018-11-10T19:16:13.857Z,69.10
2018-11-10T19:18:43.508Z,69.20
2018-11-10T19:21:13.751Z,69.20
2018-11-10T19:23:42.982Z,69.30
2018-11-10T19:26:13.326Z,69.20
2018-11-10T19:28:43.622Z,69.20
2018-11-10T19:31:13.867Z,69.20
2018-11-10T19:33:45.546Z,69.20
2018-11-10T19:36:20.981Z,69.20
2018-11-10T19:39:00.819Z,69.20
2018-11-10T19:41:39.390Z,69.60
2018-11-10T19:44:12.397Z,69.40
2018-11-10T19:46:44.980Z,69.60
2018-11-10T19:49:18.662Z,69.50
2018-11-10T19:51:49.501Z,69.70
2018-11-10T19:54:18.824Z,69.60
2018-11-10T19:56:48.031Z,69.60
2018-11-10T19:59:19.797Z,69.50
2018-11-10T20:01:49.172Z,69.60
2018-11-10T20:04:18.740Z,69.70
2018-11-10T20:06:54.091Z,69.70
2018-11-10T20:09:23.442Z,69.70
2018-11-10T20:12:02.616Z,69.70
2018-11-10T20:14:32.045Z,69.80
2018-11-10T20:17:02.027Z,69.80
2018-11-10T20:19:31.445Z,69.80
2018-11-10T20:22:00.479Z,69.90
2018-11-10T20:24:33.486Z,69.90
2018-11-10T20:27:05.642Z,69.90
2018-11-10T20:29:35.320Z,69.80
2018-11-10T20:32:07.101Z,69.90
2018-11-10T20:34:36.310Z,69.70
2018-11-10T20:37:05.837Z,69.80
2018-11-10T20:39:35.461Z,69.80
2018-11-10T20:42:06.311Z,69.80
2018-11-10T20:44:36.060Z,69.80
2018-11-10T20:47:06.726Z,69.80
2018-11-10T20:49:36.159Z,69.80
2018-11-10T20:52:06.737Z,69.80
2018-11-10T20:54:39.185Z,69.80
2018-11-10T20:57:08.225Z,69.80
2018-11-10T20:59:37.904Z,69.80
2018-11-10T21:02:07.201Z,69.80
2018-11-10T21:04:38.989Z,69.80
2018-11-10T21:07:08.929Z,69.80
2018-11-10T21:09:40.002Z,70.00
2018-11-10T21:12:10.536Z,69.80
2018-11-10T21:14:49.439Z,70.00
2018-11-10T21:17:19.571Z,69.90
2018-11-10T21:19:49.663Z,69.80
2018-11-10T21:22:20.389Z,69.90
2018-11-10T21:24:50.205Z,69.90
2018-11-10T21:27:20.775Z,70.00
2018-11-10T21:29:50.164Z,69.90
2018-11-10T21:32:20.003Z,69.90
2018-11-10T21:34:49.323Z,70.00
2018-11-10T21:37:23.446Z,70.00
2018-11-10T21:39:54.703Z,70.00
2018-11-10T21:42:24.645Z,70.00
2018-11-10T21:44:55.163Z,70.10
2018-11-10T21:47:27.020Z,69.90
2018-11-10T21:50:04.237Z,69.90
2018-11-10T21:52:35.603Z,69.90
2018-11-10T21:55:05.072Z,70.00
2018-11-10T21:57:35.376Z,70.00
2018-11-10T22:00:04.868Z,70.10
2018-11-10T22:02:34.082Z,70.80
2018-11-10T22:05:04.092Z,70.10
2018-11-10T22:07:33.939Z,70.00
2018-11-10T22:10:04.826Z,70.10
2018-11-10T22:12:35.297Z,69.90
2018-11-10T22:15:14.756Z,70.00
2018-11-10T22:17:47.305Z,69.90
2018-11-10T22:20:20.019Z,69.90
2018-11-10T22:22:50.210Z,70.10
2018-11-10T22:25:21.900Z,70.00
2018-11-10T22:27:55.716Z,69.90
2018-11-10T22:30:29.215Z,69.90
2018-11-10T22:32:58.918Z,70.00
2018-11-10T22:35:28.527Z,70.10
2018-11-10T22:37:58.519Z,70.00
2018-11-10T22:40:30.523Z,69.90
2018-11-10T22:42:59.661Z,69.80
2018-11-10T22:45:28.839Z,69.90
2018-11-10T22:47:58.953Z,70.00
2018-11-10T22:50:51.355Z,70.00
2018-11-10T22:53:21.284Z,69.90
2018-11-10T22:55:50.819Z,69.90
2018-11-10T22:58:20.996Z,69.90
2018-11-10T23:00:55.939Z,70.00
2018-11-10T23:03:25.136Z,69.90
2018-11-10T23:05:59.156Z,69.90
2018-11-10T23:08:31.076Z,70.00
2018-11-10T23:11:00.409Z,69.80
2018-11-10T23:13:30.365Z,70.00
2018-11-10T23:16:00.147Z,70.00
2018-11-10T23:18:29.521Z,70.00
2018-11-10T23:20:59.022Z,70.10
2018-11-10T23:23:28.809Z,70.00
2018-11-10T23:25:58.198Z,70.00
2018-11-10T23:28:27.605Z,70.00
2018-11-10T23:30:57.259Z,70.00
2018-11-10T23:33:26.903Z,70.00
2018-11-10T23:35:57.413Z,69.90
2018-11-10T23:38:28.781Z,70.00
2018-11-10T23:41:02.281Z,69.90
2018-11-10T23:43:32.043Z,69.90
2018-11-10T23:46:06.296Z,70.00
2018-11-10T23:51:27.275Z,70.00
2018-11-10T23:54:01.257Z,69.90
2018-11-10T23:56:30.633Z,70.00
2018-11-10T23:59:00.028Z,70.10
